Time;durP1;ratioP1;P1;durP2;ratioP2;P2;SDS_P1;SDS_P2;PMS_P1;PMS_P2;Temp;Humidity;BMP_temperature;BMP_pressure;BME280_temperature;BME280_humidity;BME280_pressure;Samples;Min_cycle;Max_cycle;Signal;HPM_P1;HPM_P2
2022/07/30 00:02:24;;;;;;;10.45;6.95;;;11.90;99.90;;;12.47;100.00;99757.28;5082998;27;120067;-81
2022/07/30 00:04:53;;;;;;;13.90;7.55;;;11.90;99.90;;;12.45;100.00;99754.09;5064719;27;119294;-78
2022/07/30 00:07:23;;;;;;;16.85;8.00;;;11.90;99.90;;;12.48;100.00;99749.91;5081520;27;131042;-76
2022/07/30 00:09:51;;;;;;;12.18;7.28;;;11.80;99.90;;;12.51;100.00;99755.56;5082725;27;129481;-76
2022/07/30 00:12:20;;;;;;;10.80;7.05;;;11.80;99.90;;;12.54;100.00;99760.34;5081700;27;122731;-77
2022/07/30 00:14:49;;;;;;;10.63;7.18;;;11.70;99.90;;;12.55;100.00;99761.94;5082697;27;122069;-75
2022/07/30 00:17:18;;;;;;;11.73;7.60;;;11.70;99.90;;;12.54;100.00;99765.81;5082294;27;129624;-77
2022/07/30 00:19:47;;;;;;;12.68;7.88;;;11.70;99.90;;;12.43;100.00;99753.59;5083208;27;129615;-79
2022/07/30 00:22:15;;;;;;;13.43;8.40;;;11.70;99.90;;;12.28;100.00;99762.19;5084207;27;119744;-77
2022/07/30 00:24:45;;;;;;;16.40;8.38;;;11.60;99.90;;;12.16;100.00;99760.91;5068592;27;119218;-76
2022/07/30 00:27:14;;;;;;;12.20;7.18;;;11.60;99.90;;;12.08;100.00;99756.25;5082918;27;130450;-74
2022/07/30 00:29:42;;;;;;;12.10;7.95;;;11.50;99.90;;;11.99;100.00;99767.06;5065437;27;129853;-74
2022/07/30 00:32:11;;;;;;;12.75;7.75;;;11.40;99.90;;;11.98;100.00;99757.34;5051412;27;118629;-76
2022/07/30 00:34:39;;;;;;;11.18;6.75;;;11.40;99.90;;;12.00;100.00;99757.81;5067844;27;119068;-76
2022/07/30 00:37:08;;;;;;;13.63;7.60;;;11.30;99.90;;;11.99;100.00;99758.91;5080777;27;129840;-76
2022/07/30 00:39:37;;;;;;;10.95;7.70;;;11.30;99.90;;;11.93;100.00;99762.09;5064122;27;129614;-78
2022/07/30 00:42:06;;;;;;;11.68;6.65;;;11.40;99.90;;;11.91;100.00;99761.59;5050750;27;118614;-75
2022/07/30 00:44:35;;;;;;;10.80;6.80;;;11.30;99.90;;;11.87;100.00;99759.50;5050424;27;118822;-76
2022/07/30 00:47:04;;;;;;;10.30;6.65;;;11.30;99.90;;;11.86;100.00;99763.31;5063347;27;130301;-74
2022/07/30 00:49:32;;;;;;;9.52;6.40;;;11.30;99.90;;;11.87;100.00;99759.50;5081812;27;130267;-76
2022/07/30 00:52:01;;;;;;;10.13;6.20;;;11.30;99.90;;;11.92;100.00;99755.03;5066734;27;118499;-74
2022/07/30 00:54:31;;;;;;;9.80;7.00;;;11.20;99.90;;;11.92;100.00;99765.91;5066791;27;119417;-75
2022/07/30 00:57:00;;;;;;;10.65;7.00;;;11.20;99.90;;;11.94;100.00;99761.00;5063398;27;130594;-76
2022/07/30 00:59:31;;;;;;;10.65;6.70;;;11.20;99.90;;;11.98;100.00;99767.38;5066305;27;129161;-74
2022/07/30 01:02:00;;;;;;;10.23;6.40;;;11.30;99.90;;;12.00;100.00;99762.47;5063112;27;121847;-75
2022/07/30 01:04:29;;;;;;;10.85;6.10;;;11.20;99.90;;;12.00;100.00;99763.25;5068583;27;120929;-75
2022/07/30 01:06:57;;;;;;;12.15;7.65;;;11.30;99.90;;;12.01;100.00;99764.03;5083672;27;129979;-75
2022/07/30 01:09:26;;;;;;;14.32;6.72;;;11.30;99.90;;;11.93;100.00;99764.81;5065056;27;129520;-79
2022/07/30 01:11:55;;;;;;;9.65;6.07;;;11.20;99.90;;;11.77;100.00;99753.53;5065391;27;119654;-76
2022/07/30 01:14:24;;;;;;;14.07;6.38;;;11.20;99.90;;;11.70;100.00;99753.97;5083405;27;119743;-74
2022/07/30 01:16:54;;;;;;;9.85;6.47;;;11.20;99.90;;;11.61;100.00;99762.09;5050653;27;129123;-74
2022/07/30 01:22:33;;;;;;;12.02;7.13;;;11.00;99.90;;;11.54;100.00;99760.94;5065442;27;119618;-74
2022/07/30 01:25:12;;;;;;;9.48;6.50;;;11.00;99.90;;;11.45;100.00;99758.97;5082368;27;119624;-78
2022/07/30 01:27:47;;;;;;;9.88;6.63;;;10.90;99.90;;;11.43;100.00;99754.94;5062189;27;130246;-78
2022/07/30 01:30:21;;;;;;;12.48;6.57;;;10.90;99.90;;;11.39;100.00;99748.53;5066613;27;129141;-75
2022/07/30 01:32:52;;;;;;;8.10;5.57;;;10.90;99.90;;;11.34;100.00;99752.16;5049660;27;118289;-77
2022/07/30 01:35:24;;;;;;;7.93;5.78;;;10.90;99.90;;;11.27;100.00;99751.81;5050232;27;119319;-76
2022/07/30 01:37:56;;;;;;;8.00;5.82;;;10.80;99.90;;;11.26;100.00;99744.78;5063435;27;130347;-75
2022/07/30 01:40:27;;;;;;;9.80;5.82;;;10.80;99.90;;;11.28;100.00;99745.25;5063242;27;129844;-76
2022/07/30 01:43:03;;;;;;;8.43;5.43;;;10.80;99.90;;;11.35;100.00;99751.06;5064375;27;120256;-75
2022/07/30 01:45:34;;;;;;;11.15;6.20;;;10.80;99.90;;;11.39;100.00;99743.09;5052048;27;119865;-73
2022/07/30 01:48:05;;;;;;;10.85;5.70;;;10.70;99.90;;;11.41;100.00;99747.09;5064537;27;130384;-74
2022/07/30 01:50:36;;;;;;;7.93;5.40;;;10.70;99.90;;;11.38;100.00;99753.16;5067616;27;129066;-76
2022/07/30 01:53:07;;;;;;;8.93;5.55;;;10.70;99.90;;;11.35;100.00;99748.34;5065099;27;121009;-75
2022/07/30 01:55:39;;;;;;;8.43;5.55;;;10.60;99.90;;;11.35;100.00;99742.91;5049589;27;120825;-75
2022/07/30 01:58:12;;;;;;;8.82;6.22;;;10.60;99.90;;;11.33;100.00;99750.59;5062699;27;130254;-76
2022/07/30 02:00:44;;;;;;;8.70;5.63;;;10.60;99.90;;;11.24;100.00;99753.22;5049054;27;128259;-76
2022/07/30 02:03:13;;;;;;;10.07;5.95;;;10.60;99.90;;;11.13;100.00;99749.97;5063128;27;119428;-75
2022/07/30 02:05:45;;;;;;;10.63;5.63;;;10.60;99.90;;;10.98;100.00;99742.19;5062599;27;119495;-75
2022/07/30 02:08:18;;;;;;;8.32;5.25;;;10.50;99.90;;;10.92;100.00;99735.25;5081423;27;130908;-74
2022/07/30 02:10:57;;;;;;;8.63;6.22;;;10.60;99.90;;;10.91;100.00;99749.97;5067357;27;129275;-74
2022/07/30 02:13:29;;;;;;;8.35;5.68;;;10.50;99.90;;;10.87;100.00;99749.75;5067998;27;119045;-83
2022/07/30 02:16:04;;;;;;;7.60;5.25;;;10.50;99.90;;;10.89;100.00;99757.59;5043155;27;118952;-75
2022/07/30 02:18:40;;;;;;;10.88;5.93;;;10.50;99.90;;;10.94;100.00;99749.34;5045729;27;129666;-75
2022/07/30 02:21:11;;;;;;;9.57;6.18;;;10.50;99.90;;;10.99;100.00;99746.50;5060670;27;130107;-76
2022/07/30 02:23:44;;;;;;;10.65;6.00;;;10.40;99.90;;;10.96;100.00;99749.84;5030400;27;118604;-75
2022/07/30 02:26:17;;;;;;;9.02;5.70;;;10.40;99.90;;;10.89;100.00;99752.16;5050834;27;119242;-76
2022/07/30 02:28:53;;;;;;;6.97;4.55;;;10.50;99.90;;;10.85;100.00;99745.75;5065917;27;129754;-74
2022/07/30 02:31:27;;;;;;;9.43;5.57;;;10.40;99.90;;;10.85;100.00;99748.47;5072497;27;130088;-76
2022/07/30 02:34:02;;;;;;;9.98;5.20;;;10.40;99.90;;;10.85;100.00;99751.19;5032061;27;118954;-76
2022/07/30 02:36:33;;;;;;;8.30;4.90;;;10.40;99.90;;;10.93;100.00;99753.16;5046407;27;119453;-75
2022/07/30 02:39:04;;;;;;;7.13;4.78;;;10.40;99.90;;;11.03;100.00;99755.66;5048953;27;129442;-78
2022/07/30 02:41:35;;;;;;;7.30;4.80;;;10.40;99.90;;;11.17;100.00;99746.63;5032464;27;128574;-76
2022/07/30 02:44:06;;;;;;;8.65;5.22;;;10.40;99.90;;;11.22;100.00;99754.66;5062572;27;122393;-77
2022/07/30 02:46:37;;;;;;;12.57;5.10;;;10.50;99.90;;;11.24;100.00;99749.72;5032133;27;120997;-78
2022/07/30 02:49:40;;;;;;;8.20;4.75;;;10.50;99.90;;;11.32;100.00;99740.81;5067016;27;129539;-78
2022/07/30 02:52:12;;;;;;;7.18;5.03;;;10.50;99.90;;;11.42;100.00;99737.84;5045488;27;129272;-76
2022/07/30 02:54:43;;;;;;;7.80;4.60;;;10.60;99.90;;;11.48;100.00;99742.03;5047935;27;119582;-75
2022/07/30 02:57:14;;;;;;;9.13;4.50;;;10.60;99.90;;;11.57;100.00;99741.28;5031222;27;119146;-79
2022/07/30 02:59:49;;;;;;;10.77;4.80;;;10.60;99.90;;;11.65;100.00;99735.88;5047663;27;129935;-77
2022/07/30 03:02:19;;;;;;;7.60;4.78;;;10.70;99.90;;;11.63;100.00;99734.59;5048907;27;129464;-77
2022/07/30 03:04:49;;;;;;;9.18;4.82;;;10.70;99.90;;;11.59;100.00;99736.31;5031823;27;119321;-76
2022/07/30 03:07:19;;;;;;;8.80;4.32;;;10.80;99.90;;;11.59;100.00;99736.31;5063927;27;119225;-76
2022/07/30 03:09:48;;;;;;;7.70;4.20;;;10.80;99.90;;;11.62;100.00;99743.84;5044413;27;130609;-77
2022/07/30 03:12:17;;;;;;;8.63;4.28;;;10.90;99.90;;;11.74;100.00;99729.69;5031654;27;128914;-77
2022/07/30 03:14:47;;;;;;;7.55;3.85;;;10.90;99.90;;;12.15;100.00;99734.00;5048442;27;118524;-77
2022/07/30 03:17:18;;;;;;;5.90;2.75;;;11.20;99.90;;;13.36;100.00;99734.41;5063876;27;119516;-77
2022/07/30 03:19:49;;;;;;;6.68;3.13;;;12.10;99.90;;;14.32;100.00;99732.06;5063245;27;129852;-78
2022/07/30 03:22:20;;;;;;;6.30;2.67;;;12.80;99.90;;;15.25;95.67;99733.91;5048467;27;129432;-77
2022/07/30 03:24:50;;;;;;;4.38;2.40;;;13.30;99.90;;;16.21;85.20;99740.22;5044579;27;119503;-77
2022/07/30 03:27:19;;;;;;;5.93;2.50;;;13.90;99.90;;;16.04;78.70;99741.25;5048920;27;119151;-76
2022/07/30 03:29:52;;;;;;;4.45;2.58;;;13.60;99.90;;;15.41;80.00;99734.06;5044479;27;129761;-76
2022/07/30 03:32:22;;;;;;;6.20;2.65;;;12.80;99.90;;;14.89;82.68;99743.56;5048094;27;128874;-76
2022/07/30 03:34:53;;;;;;;7.82;3.33;;;12.40;99.90;;;14.48;84.97;99739.66;5043629;27;121868;-78
2022/07/30 03:37:21;;;;;;;5.75;2.85;;;12.30;99.90;;;14.16;87.54;99744.66;5063268;27;121678;-77
2022/07/30 03:39:50;;;;;;;5.75;2.83;;;12.40;99.90;;;13.91;89.84;99741.72;5047662;27;129996;-77
2022/07/30 03:42:20;;;;;;;8.65;3.58;;;12.30;99.90;;;13.79;91.63;99741.63;5062574;27;129633;-77
2022/07/30 03:44:51;;;;;;;6.53;3.40;;;12.40;99.90;;;13.75;92.21;99743.41;5048074;27;119780;-78
2022/07/30 03:47:22;;;;;;;6.97;3.25;;;12.50;99.90;;;13.60;92.66;99744.75;5044669;27;119491;-77
2022/07/30 03:49:51;;;;;;;6.22;3.83;;;12.40;99.90;;;13.56;94.43;99744.59;5062606;27;130138;-76
2022/07/30 03:52:20;;;;;;;8.15;3.58;;;12.50;99.90;;;13.55;94.37;99751.16;5062628;27;129604;-76
2022/07/30 03:54:49;;;;;;;7.22;3.22;;;12.50;99.90;;;13.61;94.76;99744.41;5047895;27;119394;-77
2022/07/30 03:57:37;;;;;;;6.75;3.42;;;12.70;99.90;;;13.60;95.95;99740.09;5047962;27;118271;-75
2022/07/30 04:00:13;;;;;;;5.57;3.17;;;12.70;99.90;;;13.87;94.60;99743.53;5028910;27;128749;-77
2022/07/30 04:02:42;;;;;;;4.50;2.50;;;12.90;99.90;;;14.07;92.00;99746.63;5062416;27;129374;-78
2022/07/30 04:05:29;;;;;;;7.10;2.75;;;13.10;99.90;;;14.25;90.97;99748.16;5062756;27;119770;-77
2022/07/30 04:08:01;;;;;;;8.10;2.33;;;13.30;99.90;;;14.47;89.91;99743.53;5047581;27;119609;-78
2022/07/30 04:10:33;;;;;;;5.80;2.55;;;13.50;99.90;;;14.49;88.68;99747.53;5043740;27;129629;-81
2022/07/30 04:13:02;;;;;;;5.65;2.65;;;13.50;99.90;;;14.55;89.44;99745.38;5061885;27;129895;-78
2022/07/30 04:15:45;;;;;;;5.75;3.00;;;13.60;99.90;;;14.53;90.03;99736.75;5044023;27;119921;-77
2022/07/30 04:18:17;;;;;;;7.32;3.30;;;13.60;99.90;;;14.49;91.25;99736.63;5030598;27;118696;-79
2022/07/30 04:20:50;;;;;;;7.22;3.35;;;13.60;99.90;;;14.62;91.64;99729.31;5043899;27;130122;-77
2022/07/30 04:23:20;;;;;;;5.78;2.97;;;13.70;99.90;;;14.55;90.33;99731.72;5061737;27;129294;-77
2022/07/30 04:25:50;;;;;;;5.78;2.80;;;13.70;99.90;;;14.60;90.12;99726.13;5029466;27;121136;-77
2022/07/30 04:28:21;;;;;;;5.97;2.60;;;13.70;99.90;;;14.80;89.20;99729.16;5044102;27;121801;-79
2022/07/30 04:30:51;;;;;;;5.47;2.65;;;13.90;99.90;;;14.85;89.05;99721.59;5030159;27;129106;-78
2022/07/30 04:33:20;;;;;;;5.13;2.83;;;13.90;99.90;;;14.89;87.95;99721.69;5043426;27;129308;-78
2022/07/30 04:36:08;;;;;;;4.88;2.40;;;14.00;99.90;;;15.02;86.83;99720.63;5030194;27;119697;-79
2022/07/30 04:38:39;;;;;;;5.07;2.80;;;14.20;99.90;;;15.10;86.86;99717.00;5043936;27;119425;-77
2022/07/30 04:41:08;;;;;;;5.88;2.58;;;14.30;99.90;;;15.33;85.49;99713.09;5046413;27;129592;-78
2022/07/30 04:43:59;;;;;;;5.18;2.10;;;14.40;99.90;;;15.38;84.58;99710.13;5025760;27;129440;-77
2022/07/30 04:46:30;;;;;;;4.30;2.22;;;14.50;99.90;;;15.51;84.03;99708.22;5046959;27;118902;-77
2022/07/30 04:48:59;;;;;;;4.32;2.60;;;14.60;99.90;;;15.74;82.09;99717.59;5044036;27;119503;-77
2022/07/30 04:51:37;;;;;;;5.45;2.70;;;14.80;99.90;;;15.88;81.47;99708.28;5045584;27;129793;-76
2022/07/30 04:54:10;;;;;;;4.88;2.15;;;14.90;99.90;;;15.96;80.99;99707.38;5043732;27;129690;-76
2022/07/30 04:56:39;;;;;;;4.60;2.30;;;15.10;99.90;;;16.07;80.13;99707.72;5043610;27;120341;-78
2022/07/30 04:59:10;;;;;;;6.05;2.50;;;15.20;99.90;;;16.20;80.81;99711.25;5046749;27;118685;-76
2022/07/30 05:01:44;;;;;;;5.15;2.60;;;15.30;99.90;;;16.38;79.84;99709.84;5061391;27;129600;-76
2022/07/30 05:04:14;;;;;;;4.55;2.10;;;15.40;99.90;;;16.47;80.63;99710.50;5061196;27;128960;-77
2022/07/30 05:06:44;;;;;;;5.35;2.17;;;15.50;99.90;;;16.68;79.55;99709.53;5043353;27;119713;-77
2022/07/30 05:09:16;;;;;;;7.97;2.47;;;15.70;99.90;;;16.79;78.46;99710.63;5044007;27;119440;-77
2022/07/30 05:11:51;;;;;;;4.80;2.28;;;15.80;99.90;;;17.02;76.64;99707.38;5043481;27;129878;-77
2022/07/30 05:14:20;;;;;;;3.90;1.90;;;15.90;99.90;;;17.20;75.85;99707.84;5029340;27;128273;-75
2022/07/30 05:16:50;;;;;;;7.13;2.33;;;16.10;99.90;;;17.11;76.08;99710.78;5042077;27;121951;-78
2022/07/30 05:19:20;;;;;;;5.18;2.17;;;16.00;99.90;;;17.17;76.27;99714.03;5046795;27;121848;-78
2022/07/30 05:21:49;;;;;;;6.22;2.28;;;16.10;99.90;;;17.33;76.54;99719.59;5029709;27;129247;-79
2022/07/30 05:24:17;;;;;;;4.85;2.10;;;16.20;99.90;;;17.40;76.73;99717.00;5046828;27;129333;-75
2022/07/30 05:26:54;;;;;;;6.82;2.60;;;16.40;99.90;;;17.55;75.66;99716.22;5061570;27;120466;-77
2022/07/30 05:29:24;;;;;;;3.40;1.63;;;16.60;99.90;;;17.81;73.53;99725.91;5029571;27;118271;-76
2022/07/30 05:31:59;;;;;;;4.25;1.38;;;16.80;99.90;;;17.99;70.49;99731.03;5043345;27;129767;-82
2022/07/30 05:34:27;;;;;;;2.78;1.45;;;16.90;99.90;;;18.11;68.93;99733.69;5046961;27;129292;-79
2022/07/30 05:36:56;;;;;;;4.05;1.70;;;17.00;95.60;;;18.29;68.29;99726.66;5043780;27;119938;-80
2022/07/30 05:39:25;;;;;;;6.20;1.48;;;17.20;94.10;;;18.28;66.36;99732.50;5043820;27;119246;-76
2022/07/30 05:41:54;;;;;;;4.50;1.52;;;17.30;81.10;;;18.41;65.14;99730.44;5060460;27;130646;-81
2022/07/30 05:44:34;;;;;;;3.00;1.30;;;17.40;69.50;;;18.56;65.30;99724.09;5043099;27;130155;-77
2022/07/30 05:47:04;;;;;;;2.70;1.50;;;17.50;73.10;;;18.71;65.11;99721.66;5062125;27;119374;-78
2022/07/30 05:49:33;;;;;;;2.35;1.20;;;17.60;69.10;;;18.82;65.45;99717.16;5044102;27;119049;-76
2022/07/30 05:52:09;;;;;;;4.07;1.23;;;17.70;74.00;;;18.87;62.70;99730.66;5046201;27;129977;-77
2022/07/30 05:54:37;;;;;;;4.35;1.25;;;17.90;49.40;;;18.91;62.78;99720.50;5044916;27;129372;-77
2022/07/30 05:57:29;;;;;;;3.05;1.35;;;17.90;46.30;;;18.99;63.43;99726.94;5052460;27;120044;-77
2022/07/30 05:59:59;;;;;;;1.27;0.90;;;18.10;50.00;;;19.27;62.84;99721.19;5046640;27;119059;-78
2022/07/30 06:02:46;;;;;;;4.47;1.40;;;18.30;35.80;;;19.56;59.68;99717.00;5061095;27;130455;-77
2022/07/30 06:05:21;;;;;;;2.72;1.10;;;18.50;23.90;;;19.59;55.44;99721.00;5061544;27;129426;-81
2022/07/30 06:07:50;;;;;;;2.97;1.00;;;18.50;3.20;;;19.43;55.60;99712.03;5045252;27;122557;-77
2022/07/30 06:10:21;;;;;;;4.53;1.33;;;18.40;1.00;;;19.69;55.44;99719.56;5049658;27;121331;-78
2022/07/30 06:12:50;;;;;;;4.18;1.48;;;18.70;1.00;;;19.74;55.02;99711.81;5046030;27;130412;-77
2022/07/30 06:15:21;;;;;;;5.30;1.10;;;18.80;1.00;;;19.78;54.56;99711.09;5024387;27;128859;-76
2022/07/30 06:17:52;;;;;;;2.17;1.00;;;18.70;1.00;;;19.65;54.37;99700.25;5046799;27;120228;-79
2022/07/30 06:20:29;;;;;;;2.55;1.20;;;18.60;1.00;;;19.82;54.29;99695.41;5046905;27;119123;-81
2022/07/30 06:23:24;;;;;;;4.57;1.10;;;18.70;1.00;;;19.84;54.57;99704.13;5083653;27;129734;-76
2022/07/30 06:26:09;;;;;;;3.05;1.55;;;18.80;1.00;;;19.90;55.30;99694.38;5069793;27;128627;-76
2022/07/30 06:28:37;;;;;;;2.20;1.05;;;18.90;1.00;;;20.26;54.72;99697.66;5068251;27;119487;-80
2022/07/30 06:31:08;;;;;;;3.13;1.10;;;19.10;1.00;;;20.51;53.76;99697.22;5051186;27;118552;-78
2022/07/30 06:33:38;;;;;;;4.03;1.00;;;19.30;1.00;;;20.53;54.43;99694.88;5068263;27;129846;-78
2022/07/30 06:36:07;;;;;;;1.60;0.90;;;19.30;1.00;;;20.46;53.78;99699.13;5066460;27;129682;-79
2022/07/30 06:38:48;;;;;;;2.55;1.13;;;19.20;1.00;;;20.67;53.28;99700.59;5069925;27;119226;-78
2022/07/30 06:41:23;;;;;;;2.92;1.10;;;19.30;1.00;;;20.65;53.99;99700.19;5067980;27;118421;-78
2022/07/30 06:43:58;;;;;;;2.07;1.00;;;19.50;1.00;;;20.44;54.64;99698.72;5069159;27;129465;-77
2022/07/30 06:46:45;;;;;;;2.75;1.38;;;19.40;1.00;;;20.47;54.89;99697.16;5084029;27;129631;-76
2022/07/30 06:49:16;;;;;;;2.55;1.00;;;19.30;1.00;;;20.80;54.21;99693.66;5066029;27;120431;-77
2022/07/30 06:51:45;;;;;;;4.38;1.00;;;19.50;1.00;;;20.94;54.98;99692.22;5083796;27;119674;-75
2022/07/30 06:54:14;;;;;;;2.95;1.30;;;19.60;1.00;;;21.10;52.92;99692.00;5068039;27;129842;-78
2022/07/30 06:57:01;;;;;;;2.83;1.08;;;19.60;1.00;;;21.12;53.17;99687.69;5084257;27;129716;-79
2022/07/30 06:59:31;;;;;;;6.28;1.75;;;19.60;1.00;;;21.47;52.98;99694.75;5082799;27;121841;-79
2022/07/30 07:02:25;;;;;;;2.05;1.08;;;20.00;1.00;;;21.50;51.67;99699.56;5083878;27;121856;-76
2022/07/30 07:05:08;;;;;;;2.05;1.00;;;19.80;1.00;;;21.15;52.77;99698.00;5069499;27;129594;-77
2022/07/30 07:07:39;;;;;;;3.63;1.05;;;19.60;1.00;;;21.10;52.14;99703.84;5066023;27;129754;-79
2022/07/30 07:10:09;;;;;;;3.20;0.90;;;19.70;1.00;;;21.34;53.31;99694.22;5086667;27;118424;-75
2022/07/30 07:12:40;;;;;;;2.65;1.33;;;20.00;1.00;;;21.75;51.94;99701.72;5085217;27;119580;-79
2022/07/30 07:15:10;;;;;;;2.28;1.00;;;20.30;1.00;;;22.11;51.50;99702.00;5082729;27;130090;-76
2022/07/30 07:17:40;;;;;;;2.58;0.93;;;20.50;1.00;;;21.95;49.58;99704.25;5065453;27;129608;-76
2022/07/30 07:20:35;;;;;;;6.38;1.35;;;20.40;1.00;;;22.05;51.14;99703.53;5069543;27;119399;-79
2022/07/30 07:23:07;;;;;;;3.13;1.27;;;20.40;1.00;;;22.33;51.43;99694.66;5052474;27;118637;-77
2022/07/30 07:25:36;;;;;;;2.78;1.30;;;20.50;1.00;;;22.21;48.67;99692.97;5068297;27;129506;-75
2022/07/30 07:28:06;;;;;;;2.97;1.40;;;20.40;1.00;;;21.64;49.90;99689.78;5064472;27;129962;-76
2022/07/30 07:30:35;;;;;;;4.20;1.40;;;20.10;1.00;;;21.89;51.80;99690.78;5051225;27;118345;-77
2022/07/30 07:33:05;;;;;;;3.72;1.35;;;20.30;1.00;;;21.92;51.73;99688.44;5065619;27;119651;-80
2022/07/30 07:35:35;;;;;;;3.50;1.30;;;20.40;1.00;;;22.12;50.72;99698.03;5068220;27;129730;-79
2022/07/30 07:38:04;;;;;;;2.47;1.20;;;20.60;1.00;;;22.20;50.09;99698.88;5065619;27;129628;-80
2022/07/30 07:40:32;;;;;;;3.38;1.20;;;20.60;1.00;;;22.42;49.14;99700.63;5085769;27;119172;-79
2022/07/30 07:43:01;;;;;;;3.45;1.33;;;20.70;1.00;;;22.40;48.84;99699.41;5051991;27;121326;-78
2022/07/30 07:45:30;;;;;;;2.88;1.20;;;20.70;1.00;;;22.73;47.89;99697.59;5062130;27;130237;-76
2022/07/30 07:48:05;;;;;;;7.80;1.55;;;20.90;1.00;;;22.32;48.01;99697.78;5048184;27;130165;-81
2022/07/30 07:51:01;;;;;;;2.13;1.20;;;20.50;1.00;;;22.25;48.90;99693.78;5067739;27;121727;-80
2022/07/30 07:53:33;;;;;;;5.63;1.40;;;20.70;1.00;;;22.44;48.16;99689.19;5057349;27;121697;-77
2022/07/30 07:56:07;;;;;;;2.92;1.20;;;20.80;1.00;;;22.13;49.26;99694.09;5065997;27;129050;-78
2022/07/30 07:58:36;;;;;;;4.32;1.13;;;20.80;1.00;;;22.59;47.76;99688.06;5066484;27;129121;-77
2022/07/30 08:01:08;;;;;;;2.58;1.10;;;21.10;1.00;;;23.12;47.61;99691.41;5060467;27;119622;-82
2022/07/30 08:04:10;;;;;;;3.45;1.30;;;21.60;1.00;;;23.21;48.79;99679.97;5000644;27;118312;-76
2022/07/30 08:07:04;;;;;;;4.68;1.42;;;21.50;1.00;;;22.94;47.84;99689.38;5034771;27;129877;-76
2022/07/30 08:10:09;;;;;;;2.92;1.30;;;21.10;1.00;;;23.26;48.55;99674.03;5063986;27;129905;-80
2022/07/30 08:13:17;;;;;;;2.45;1.30;;;21.50;1.00;;;23.74;47.99;99670.88;4981765;28;120765;-79
2022/07/30 08:16:09;;;;;;;3.63;1.50;;;22.00;1.00;;;23.51;45.29;99663.78;4946091;28;119888;-81
2022/07/30 08:19:00;;;;;;;2.95;1.20;;;21.70;1.00;;;23.75;48.05;99666.13;5043674;27;129758;-79
2022/07/30 08:21:34;;;;;;;2.75;1.33;;;21.80;1.00;;;23.79;47.02;99661.38;5046508;27;128499;-80
2022/07/30 08:24:07;;;;;;;2.67;1.35;;;21.80;1.00;;;23.09;46.63;99654.25;5061801;27;120233;-79
2022/07/30 08:26:36;;;;;;;4.22;1.42;;;21.20;1.00;;;23.32;47.00;99656.63;5064789;27;119567;-78
2022/07/30 08:29:05;;;;;;;3.53;1.30;;;21.40;1.00;;;23.12;48.76;99649.88;5083910;27;129998;-80
2022/07/30 08:31:37;;;;;;;3.35;1.52;;;21.40;1.00;;;23.40;45.88;99651.09;5066415;27;129289;-80
2022/07/30 08:34:07;;;;;;;3.28;1.50;;;21.60;1.00;;;24.29;43.96;99650.22;5081174;27;120286;-80
2022/07/30 08:36:38;;;;;;;3.28;1.42;;;22.20;1.00;;;23.56;44.80;99648.75;5066662;27;119125;-79
2022/07/30 08:39:10;;;;;;;4.57;1.48;;;21.70;1.00;;;23.12;47.14;99652.66;5046733;27;130433;-78
2022/07/30 08:41:41;;;;;;;2.95;1.23;;;21.40;1.00;;;23.16;46.77;99664.53;5048742;27;129144;-77
2022/07/30 08:44:13;;;;;;;4.03;1.73;;;21.50;1.00;;;23.24;46.07;99659.81;5063783;27;122609;-79
2022/07/30 08:46:43;;;;;;;4.00;1.25;;;21.40;1.00;;;23.39;46.51;99650.31;5063006;27;122663;-82
2022/07/30 08:49:26;;;;;;;3.45;1.42;;;21.50;1.00;;;23.38;46.78;99653.50;5034839;27;128830;-75
2022/07/30 08:51:57;;;;;;;2.58;1.48;;;21.80;1.00;;;23.45;44.62;99659.81;5059974;27;129401;-79
2022/07/30 08:54:49;;;;;;;3.20;1.33;;;21.60;1.00;;;23.68;45.01;99656.66;5083812;27;119911;-75
2022/07/30 08:57:20;;;;;;;3.60;1.40;;;21.70;1.00;;;23.64;46.18;99661.41;5081639;27;119401;-76
2022/07/30 08:59:50;;;;;;;2.97;1.38;;;21.90;1.00;;;23.75;45.25;99643.97;5049147;27;129646;-78
2022/07/30 09:02:19;;;;;;;3.10;1.50;;;21.90;1.00;;;23.37;45.46;99651.91;5062604;27;129458;-78
2022/07/30 09:05:00;;;;;;;4.45;1.15;;;21.50;1.00;;;22.80;46.89;99636.75;5066184;27;118836;-77
2022/07/30 09:07:32;;;;;;;3.05;1.30;;;21.10;1.00;;;22.20;47.53;99638.84;5048905;27;119244;-81
2022/07/30 09:10:03;;;;;;;2.60;1.25;;;20.80;1.00;;;22.67;47.99;99632.75;5064817;27;130250;-78
2022/07/30 09:12:35;;;;;;;4.68;1.38;;;21.30;1.00;;;23.29;46.00;99631.72;5062738;27;129656;-78
2022/07/30 09:15:11;;;;;;;2.58;1.23;;;21.70;1.00;;;23.69;45.18;99632.50;5064924;27;119682;-77
2022/07/30 09:18:01;;;;;;;3.63;1.50;;;22.10;1.00;;;23.86;43.82;99622.63;5044476;27;118620;-78
2022/07/30 09:20:38;;;;;;;3.42;1.20;;;22.10;1.00;;;23.52;44.29;99631.31;5047307;27;129714;-77
2022/07/30 09:23:10;;;;;;;2.13;1.20;;;22.00;1.00;;;23.31;44.53;99632.91;5060476;27;129186;-77
2022/07/30 09:26:06;;;;;;;2.28;1.00;;;21.90;1.00;;;23.71;43.49;99634.88;5045446;27;119505;-79
2022/07/30 09:28:55;;;;;;;4.70;1.20;;;22.00;1.00;;;23.81;42.91;99622.97;5061163;27;119228;-77
2022/07/30 09:32:01;;;;;;;6.07;1.50;;;21.90;1.00;;;23.65;44.09;99632.53;4983433;28;128931;-78
2022/07/30 09:35:13;;;;;;;2.00;1.25;;;22.10;1.00;;;23.38;44.43;99623.03;4981276;28;129350;-76
2022/07/30 09:38:03;;;;;;;5.25;1.50;;;21.70;1.00;;;23.98;44.08;99621.38;5061695;27;121881;-77
2022/07/30 09:40:52;;;;;;;2.47;1.20;;;22.30;1.00;;;24.19;43.30;99618.56;5060464;27;121733;-78
2022/07/30 09:43:46;;;;;;;3.42;1.38;;;22.30;1.00;;;24.89;42.70;99620.63;5060075;27;130565;-80
2022/07/30 09:46:23;;;;;;;4.20;1.35;;;23.00;1.00;;;25.43;42.71;99614.72;5040240;27;129371;-76
2022/07/30 09:48:52;;;;;;;4.63;2.40;;;23.40;1.00;;;25.04;40.97;99615.78;5062674;27;119485;-77
2022/07/30 09:51:37;;;;;;;9.88;2.38;;;22.90;1.00;;;25.02;43.98;99615.38;5047360;27;118664;-76
2022/07/30 09:54:06;;;;;;;5.50;1.60;;;22.90;1.00;;;24.97;42.61;99604.72;5047436;27;129407;-77
2022/07/30 09:56:35;;;;;;;2.47;1.25;;;22.70;1.00;;;24.78;41.45;99614.38;5058491;27;129473;-77
2022/07/30 09:59:05;;;;;;;2.53;1.13;;;22.40;1.00;;;24.86;41.44;99613.13;5028030;27;118967;-77
2022/07/30 10:01:53;;;;;;;3.13;1.95;;;22.50;1.00;;;25.08;41.03;99608.22;5077010;27;119782;-78
2022/07/30 10:04:40;;;;;;;2.72;1.40;;;22.70;1.00;;;25.82;41.26;99613.56;5078517;27;129659;-78
2022/07/30 10:07:19;;;;;;;5.15;1.70;;;23.40;1.00;;;25.74;40.17;99606.50;5060829;27;130055;-78
2022/07/30 10:09:49;;;;;;;4.10;1.38;;;23.50;1.00;;;25.95;42.80;99599.13;5064752;27;119321;-77
2022/07/30 10:12:21;;;;;;;5.20;1.48;;;23.70;1.00;;;26.16;40.91;99607.28;5058568;27;119442;-77
2022/07/30 10:14:55;;;;;;;2.42;1.20;;;24.10;1.00;;;26.02;40.00;99615.75;5064327;27;129653;-76
2022/07/30 10:17:24;;;;;;;2.97;1.23;;;23.90;1.00;;;26.07;39.56;99604.19;5064344;27;129826;-75
2022/07/30 10:20:17;;;;;;;2.05;1.10;;;23.80;1.00;;;25.94;40.96;99603.09;5065318;27;118959;-75
2022/07/30 10:23:08;;;;;;;3.20;1.33;;;23.50;1.00;;;25.84;40.95;99607.59;5078964;27;119420;-81
2022/07/30 10:25:56;;;;;;;5.65;1.27;;;23.80;1.00;;;25.34;42.63;99600.50;5061425;27;129400;-77
2022/07/30 10:28:44;;;;;;;4.10;1.40;;;23.20;1.00;;;25.82;41.78;99605.22;5072989;27;129737;-79
2022/07/30 10:31:16;;;;;;;4.05;1.48;;;23.40;1.00;;;25.44;41.10;99605.16;5073459;27;121970;-77
2022/07/30 10:33:45;;;;;;;1.80;1.00;;;23.10;1.00;;;25.46;41.07;99596.44;5080414;27;121700;-78
2022/07/30 10:36:14;;;;;;;4.15;1.48;;;23.20;1.00;;;25.29;40.72;99598.97;5079454;27;130636;-77
2022/07/30 10:38:44;;;;;;;4.53;1.48;;;23.10;1.00;;;25.48;39.14;99591.28;5064184;27;129007;-77
2022/07/30 10:41:35;;;;;;;2.78;1.30;;;23.30;1.00;;;25.74;39.04;99592.59;5080306;27;119528;-79
2022/07/30 10:44:25;;;;;;;2.50;1.33;;;23.40;1.00;;;25.23;40.25;99585.91;5080303;27;119467;-76
2022/07/30 10:47:02;;;;;;;3.28;1.38;;;23.20;1.00;;;25.21;40.82;99579.94;5079701;27;129904;-76